createdAt,value
2022-10-17T00:00:24.614Z,5.69
2022-10-17T00:05:48.756Z,5.79
2022-10-17T00:11:16.718Z,5.73
2022-10-17T00:16:39.157Z,5.76
2022-10-17T00:22:01.256Z,5.66
2022-10-17T00:27:23.176Z,5.59
2022-10-17T00:32:45.774Z,5.72
2022-10-17T00:38:07.714Z,5.51
2022-10-17T00:43:30.321Z,5.56
2022-10-17T00:48:55.374Z,5.62
2022-10-17T00:54:20.395Z,5.74
2022-10-17T00:59:44.474Z,5.74
2022-10-17T01:05:10.234Z,5.75
2022-10-17T01:11:13.857Z,5.78
2022-10-17T01:16:53.695Z,5.79
2022-10-17T01:22:31.635Z,5.80
2022-10-17T01:28:11.474Z,5.83
2022-10-17T01:33:59.314Z,5.78
2022-10-17T01:39:45.358Z,5.84
2022-10-17T01:45:42.717Z,5.69
2022-10-17T01:51:16.155Z,5.83
2022-10-17T01:56:40.915Z,5.82
2022-10-17T02:02:03.976Z,5.80
2022-10-17T02:07:26.574Z,5.71
2022-10-17T02:13:46.114Z,5.70
2022-10-17T02:19:17.621Z,5.58
2022-10-17T02:24:39.940Z,5.54
2022-10-17T02:30:24.235Z,5.48
2022-10-17T02:35:51.534Z,5.29
2022-10-17T02:41:18.743Z,5.06
2022-10-17T02:46:45.694Z,5.23
2022-10-17T02:52:16.437Z,5.24
2022-10-17T02:57:48.816Z,5.21
2022-10-17T03:03:40.295Z,5.13
2022-10-17T03:09:02.803Z,5.13
2022-10-17T03:14:24.875Z,5.09
2022-10-17T03:19:47.332Z,5.08
2022-10-17T03:25:09.894Z,5.05
2022-10-17T03:30:33.048Z,5.09
2022-10-17T03:35:54.957Z,5.00
2022-10-17T03:41:17.835Z,5.03
2022-10-17T03:46:39.749Z,4.88
2022-10-17T03:52:02.454Z,4.94
2022-10-17T03:57:24.355Z,4.99
2022-10-17T04:02:47.039Z,4.99
2022-10-17T04:08:13.656Z,5.01
2022-10-17T04:13:56.967Z,5.05
2022-10-17T04:19:21.454Z,4.98
2022-10-17T04:24:45.316Z,4.97
2022-10-17T04:30:33.974Z,5.12
2022-10-17T04:36:01.276Z,5.20
2022-10-17T04:41:25.106Z,5.21
2022-10-17T04:46:47.674Z,5.27
2022-10-17T04:52:09.641Z,5.35
2022-10-17T04:57:39.204Z,5.51
2022-10-17T05:03:12.935Z,5.61
2022-10-17T05:08:36.076Z,5.67
2022-10-17T05:14:01.656Z,5.72
2022-10-17T05:19:25.155Z,5.79
2022-10-17T05:24:47.735Z,5.81
2022-10-17T05:30:10.534Z,5.89
2022-10-17T05:35:36.356Z,5.92
2022-10-17T05:41:03.235Z,5.93
2022-10-17T05:46:29.314Z,5.69
2022-10-17T05:51:52.134Z,5.71
2022-10-17T05:57:14.675Z,5.63
2022-10-17T06:02:39.475Z,5.58
2022-10-17T06:08:03.156Z,5.66
2022-10-17T06:13:30.458Z,5.99
2022-10-17T06:18:59.015Z,5.92
2022-10-17T06:24:22.795Z,5.84
2022-10-17T06:29:49.395Z,6.27
2022-10-17T06:35:18.255Z,5.81
2022-10-17T06:40:43.075Z,5.99
2022-10-17T06:46:05.815Z,6.75
2022-10-17T06:51:35.155Z,7.45
2022-10-17T06:56:57.544Z,7.94
2022-10-17T07:02:31.820Z,7.74
2022-10-17T07:07:56.654Z,7.51
2022-10-17T07:13:19.899Z,7.47
2022-10-17T07:18:42.624Z,7.41
2022-10-17T07:24:06.394Z,7.58
2022-10-17T07:29:28.438Z,7.64
2022-10-17T07:34:59.764Z,7.59
2022-10-17T07:40:22.383Z,7.49
2022-10-17T07:45:44.718Z,7.49
2022-10-17T07:51:08.683Z,7.59
2022-10-17T07:56:30.743Z,7.61
2022-10-17T08:01:56.705Z,7.66
2022-10-17T08:07:24.159Z,7.84
2022-10-17T08:12:49.542Z,7.91
2022-10-17T08:18:11.917Z,8.04
2022-10-17T08:23:33.848Z,8.12
2022-10-17T08:28:56.152Z,8.18
2022-10-17T08:34:18.295Z,8.13
2022-10-17T08:39:40.418Z,8.10
2022-10-17T08:45:11.258Z,8.15
2022-10-17T08:50:41.146Z,8.24
2022-10-17T08:56:24.874Z,8.08
2022-10-17T09:02:17.754Z,8.23
2022-10-17T09:08:09.116Z,8.25
2022-10-17T09:14:32.333Z,8.23
2022-10-17T09:20:18.882Z,8.31
2022-10-17T09:25:48.214Z,8.31
2022-10-17T09:31:41.548Z,8.25
2022-10-17T09:37:03.841Z,8.22
2022-10-17T09:42:28.763Z,7.88
2022-10-17T09:48:10.995Z,7.99
2022-10-17T09:53:43.383Z,7.68
2022-10-17T09:59:11.537Z,7.33
2022-10-17T10:05:05.576Z,7.15
2022-10-17T10:10:33.449Z,6.97
2022-10-17T10:16:15.276Z,6.53
2022-10-17T10:21:56.607Z,6.83
2022-10-17T10:27:20.182Z,6.76
2022-10-17T10:32:48.141Z,6.68
2022-10-17T10:38:18.610Z,6.61
2022-10-17T10:43:49.496Z,6.67
2022-10-17T10:49:31.875Z,6.70
2022-10-17T10:55:20.782Z,6.76
2022-10-17T11:00:43.061Z,6.82
2022-10-17T11:06:13.773Z,6.83
2022-10-17T11:11:41.233Z,6.70
2022-10-17T11:17:13.760Z,6.93
2022-10-17T11:22:50.331Z,6.81
2022-10-17T11:28:24.301Z,6.91
2022-10-17T11:34:06.363Z,6.91
2022-10-17T11:39:51.842Z,6.98
2022-10-17T11:45:27.460Z,7.03
2022-10-17T11:57:30.373Z,6.75
2022-10-17T12:03:59.277Z,7.21
2022-10-17T12:10:05.109Z,7.28
2022-10-17T12:15:32.109Z,6.79
2022-10-17T12:21:01.756Z,6.88
2022-10-17T12:26:35.525Z,6.81
2022-10-17T12:32:15.499Z,6.82
2022-10-17T12:37:49.202Z,7.35
2022-10-17T12:43:17.553Z,7.38
2022-10-17T12:48:39.356Z,7.39
2022-10-17T12:54:09.415Z,7.35
2022-10-17T12:59:31.650Z,7.37
2022-10-17T13:05:04.094Z,7.39
2022-10-17T13:10:29.058Z,7.42
2022-10-17T13:15:56.122Z,7.42
2022-10-17T13:21:18.434Z,7.48
2022-10-17T13:26:46.903Z,7.51
2022-10-17T13:32:12.314Z,7.49
2022-10-17T13:37:35.815Z,7.55
2022-10-17T13:43:04.754Z,7.35
2022-10-17T13:48:31.995Z,7.40
2022-10-17T13:54:00.162Z,7.23
2022-10-17T13:59:41.656Z,7.46
2022-10-17T14:05:19.214Z,7.55
2022-10-17T14:10:45.269Z,7.24
2022-10-17T14:16:11.255Z,7.28
2022-10-17T14:21:50.161Z,6.99
2022-10-17T14:28:28.692Z,7.41
2022-10-17T14:34:36.254Z,7.11
2022-10-17T14:40:05.193Z,7.05
2022-10-17T14:45:36.944Z,7.10
2022-10-17T14:51:17.733Z,7.39
2022-10-17T14:56:43.942Z,7.43
2022-10-17T15:02:05.574Z,7.46
2022-10-17T15:07:27.794Z,7.49
2022-10-17T15:12:57.442Z,7.52
2022-10-17T15:18:21.513Z,7.54
2022-10-17T15:23:43.994Z,7.58
2022-10-17T15:29:06.150Z,7.61
2022-10-17T15:34:28.255Z,7.66
2022-10-17T15:39:54.899Z,7.64
2022-10-17T15:45:19.515Z,7.64
2022-10-17T15:50:44.595Z,7.65
2022-10-17T15:56:07.468Z,7.64
2022-10-17T16:01:31.914Z,7.67
2022-10-17T16:06:54.089Z,7.58
2022-10-17T16:12:28.455Z,7.60
2022-10-17T16:17:55.434Z,7.74
2022-10-17T16:23:17.353Z,7.76
2022-10-17T16:28:43.635Z,7.80
2022-10-17T16:34:09.463Z,7.50
2022-10-17T16:39:31.115Z,7.67
2022-10-17T16:44:53.400Z,7.69
2022-10-17T16:50:16.259Z,7.26
2022-10-17T16:55:38.274Z,7.91
2022-10-17T17:01:06.811Z,7.93
2022-10-17T17:06:33.793Z,7.49
2022-10-17T17:12:02.539Z,7.71
2022-10-17T17:17:30.800Z,7.59
2022-10-17T17:22:59.720Z,7.34
2022-10-17T17:28:23.227Z,7.72
2022-10-17T17:33:51.661Z,7.39
2022-10-17T17:39:16.705Z,7.72
2022-10-17T17:44:39.096Z,7.53
2022-10-17T17:50:06.566Z,8.04
2022-10-17T17:55:31.890Z,7.92
2022-10-17T18:00:56.016Z,7.88
2022-10-17T18:06:23.594Z,7.82
2022-10-17T18:11:46.137Z,7.86
2022-10-17T18:17:08.043Z,8.06
2022-10-17T18:22:30.300Z,8.00
2022-10-17T18:27:52.276Z,8.34
2022-10-17T18:33:14.174Z,8.28
2022-10-17T18:38:36.376Z,8.27
2022-10-17T18:43:59.001Z,8.00
2022-10-17T18:49:25.655Z,8.05
2022-10-17T18:54:47.696Z,8.18
2022-10-17T19:00:11.335Z,8.21
2022-10-17T19:05:34.548Z,8.08
2022-10-17T19:10:57.275Z,7.50
2022-10-17T19:16:34.757Z,8.00
2022-10-17T19:21:58.062Z,7.55
2022-10-17T19:27:21.204Z,7.61
2022-10-17T19:32:43.183Z,7.90
2022-10-17T19:38:08.417Z,7.62
2022-10-17T19:43:32.929Z,7.88
2022-10-17T19:48:54.958Z,7.96
2022-10-17T19:54:19.235Z,8.18
2022-10-17T19:59:44.597Z,7.97
2022-10-17T20:05:21.667Z,8.10
2022-10-17T20:10:48.557Z,8.40
2022-10-17T20:16:14.515Z,8.46
2022-10-17T20:21:37.237Z,8.46
2022-10-17T20:27:01.877Z,8.50
2022-10-17T20:32:23.754Z,8.55
2022-10-17T20:37:45.828Z,8.61
2022-10-17T20:43:08.900Z,8.70
2022-10-17T20:48:30.943Z,8.75
2022-10-17T20:53:52.818Z,8.79
2022-10-17T20:59:17.417Z,8.84
2022-10-17T21:04:47.355Z,8.90
2022-10-17T21:10:34.482Z,8.15
2022-10-17T21:15:55.294Z,8.26
2022-10-17T21:21:19.215Z,8.96
2022-10-17T21:26:45.536Z,8.36
2022-10-17T21:32:15.561Z,8.88
2022-10-17T21:37:48.408Z,8.91
2022-10-17T21:43:10.465Z,8.46
2022-10-17T21:48:35.396Z,8.93
2022-10-17T21:53:58.358Z,8.91
2022-10-17T21:59:20.347Z,8.89
2022-10-17T22:04:42.472Z,8.64
2022-10-17T22:10:05.083Z,8.44
2022-10-17T22:15:30.695Z,8.71
2022-10-17T22:20:52.851Z,8.42
2022-10-17T22:26:15.274Z,8.86
2022-10-17T22:31:38.200Z,8.78
2022-10-17T22:37:00.364Z,8.77
2022-10-17T22:47:49.555Z,8.65
2022-10-17T22:53:23.322Z,8.66
2022-10-17T22:58:46.384Z,8.49
2022-10-17T23:04:10.923Z,8.65
2022-10-17T23:09:33.191Z,8.59
2022-10-17T23:14:59.665Z,8.16
2022-10-17T23:20:24.415Z,8.55
2022-10-17T23:25:50.020Z,8.42
2022-10-17T23:31:18.755Z,8.37
2022-10-17T23:36:40.885Z,8.53
2022-10-17T23:42:03.782Z,8.61
2022-10-17T23:47:28.880Z,8.60
2022-10-17T23:52:52.934Z,8.66
2022-10-17T23:58:15.665Z,8.47
